sensor_id;sensor_type;location;lat;lon;timestamp;temperature;humidity
33903;DHT22;20194;50.950;5.346;2023-03-14T00:01:43;11.40;54.30
33903;DHT22;20194;50.950;5.346;2023-03-14T00:04:09;11.40;55.30
33903;DHT22;20194;50.950;5.346;2023-03-14T00:06:35;11.40;55.60
33903;DHT22;20194;50.950;5.346;2023-03-14T00:09:01;11.40;55.70
33903;DHT22;20194;50.950;5.346;2023-03-14T00:11:26;11.30;54.70
33903;DHT22;20194;50.950;5.346;2023-03-14T00:13:52;11.40;55.10
33903;DHT22;20194;50.950;5.346;2023-03-14T00:16:19;11.30;56.00
33903;DHT22;20194;50.950;5.346;2023-03-14T00:18:45;11.30;55.60
33903;DHT22;20194;50.950;5.346;2023-03-14T00:21:12;11.30;55.70
33903;DHT22;20194;50.950;5.346;2023-03-14T00:23:39;11.30;56.40
33903;DHT22;20194;50.950;5.346;2023-03-14T00:26:14;11.30;55.10
33903;DHT22;20194;50.950;5.346;2023-03-14T00:28:41;11.20;55.60
33903;DHT22;20194;50.950;5.346;2023-03-14T00:31:09;11.20;56.10
33903;DHT22;20194;50.950;5.346;2023-03-14T00:33:35;11.20;55.00
33903;DHT22;20194;50.950;5.346;2023-03-14T00:36:04;11.20;53.30
33903;DHT22;20194;50.950;5.346;2023-03-14T00:38:31;11.30;53.50
33903;DHT22;20194;50.950;5.346;2023-03-14T00:40:57;11.30;53.50
33903;DHT22;20194;50.950;5.346;2023-03-14T00:43:24;11.30;53.30
33903;DHT22;20194;50.950;5.346;2023-03-14T00:45:50;11.30;53.70
33903;DHT22;20194;50.950;5.346;2023-03-14T00:48:18;11.40;53.40
33903;DHT22;20194;50.950;5.346;2023-03-14T00:50:43;11.30;54.60
33903;DHT22;20194;50.950;5.346;2023-03-14T00:53:09;11.20;55.50
33903;DHT22;20194;50.950;5.346;2023-03-14T00:55:39;11.20;56.40
33903;DHT22;20194;50.950;5.346;2023-03-14T00:58:05;11.10;56.80
33903;DHT22;20194;50.950;5.346;2023-03-14T01:00:32;11.20;56.10
33903;DHT22;20194;50.950;5.346;2023-03-14T01:02:58;11.20;55.70
33903;DHT22;20194;50.950;5.346;2023-03-14T01:05:24;11.20;55.70
33903;DHT22;20194;50.950;5.346;2023-03-14T01:07:50;11.20;55.90
33903;DHT22;20194;50.950;5.346;2023-03-14T01:10:16;11.20;56.90
33903;DHT22;20194;50.950;5.346;2023-03-14T01:12:41;11.30;56.90
33903;DHT22;20194;50.950;5.346;2023-03-14T01:15:08;11.30;54.90
33903;DHT22;20194;50.950;5.346;2023-03-14T01:17:34;11.30;53.70
33903;DHT22;20194;50.950;5.346;2023-03-14T01:20:01;11.30;52.90
33903;DHT22;20194;50.950;5.346;2023-03-14T01:22:27;11.20;53.50
33903;DHT22;20194;50.950;5.346;2023-03-14T01:24:53;11.10;53.90
33903;DHT22;20194;50.950;5.346;2023-03-14T01:27:18;11.20;53.90
33903;DHT22;20194;50.950;5.346;2023-03-14T01:29:44;11.20;53.20
33903;DHT22;20194;50.950;5.346;2023-03-14T01:32:10;11.10;52.70
33903;DHT22;20194;50.950;5.346;2023-03-14T01:34:35;11.10;52.40
33903;DHT22;20194;50.950;5.346;2023-03-14T01:37:01;11.10;52.40
33903;DHT22;20194;50.950;5.346;2023-03-14T01:39:26;11.10;52.50
33903;DHT22;20194;50.950;5.346;2023-03-14T01:41:53;11.10;52.50
33903;DHT22;20194;50.950;5.346;2023-03-14T01:44:19;11.10;52.00
33903;DHT22;20194;50.950;5.346;2023-03-14T01:46:45;11.20;53.00
33903;DHT22;20194;50.950;5.346;2023-03-14T01:49:32;11.20;52.40
33903;DHT22;20194;50.950;5.346;2023-03-14T01:52:13;11.20;51.60
33903;DHT22;20194;50.950;5.346;2023-03-14T01:54:49;11.20;50.90
33903;DHT22;20194;50.950;5.346;2023-03-14T01:57:23;11.20;51.70
33903;DHT22;20194;50.950;5.346;2023-03-14T02:00:01;11.20;52.00
33903;DHT22;20194;50.950;5.346;2023-03-14T02:02:29;11.20;52.20
33903;DHT22;20194;50.950;5.346;2023-03-14T02:04:57;11.10;51.90
33903;DHT22;20194;50.950;5.346;2023-03-14T02:07:36;11.20;50.20
33903;DHT22;20194;50.950;5.346;2023-03-14T02:10:03;11.20;49.30
33903;DHT22;20194;50.950;5.346;2023-03-14T02:12:30;11.20;49.10
33903;DHT22;20194;50.950;5.346;2023-03-14T02:14:57;11.20;48.60
33903;DHT22;20194;50.950;5.346;2023-03-14T02:17:23;11.20;48.20
33903;DHT22;20194;50.950;5.346;2023-03-14T02:20:32;11.20;48.60
33903;DHT22;20194;50.950;5.346;2023-03-14T02:23:00;11.10;47.90
33903;DHT22;20194;50.950;5.346;2023-03-14T02:28:27;11.10;49.50
33903;DHT22;20194;50.950;5.346;2023-03-14T02:30:52;11.10;50.60
33903;DHT22;20194;50.950;5.346;2023-03-14T02:33:20;11.00;54.60
33903;DHT22;20194;50.950;5.346;2023-03-14T02:40:50;10.70;62.80
33903;DHT22;20194;50.950;5.346;2023-03-14T02:43:16;10.60;63.90
33903;DHT22;20194;50.950;5.346;2023-03-14T02:45:44;10.60;64.90
33903;DHT22;20194;50.950;5.346;2023-03-14T02:48:27;10.60;65.40
33903;DHT22;20194;50.950;5.346;2023-03-14T02:50:55;10.50;66.50
33903;DHT22;20194;50.950;5.346;2023-03-14T02:53:25;10.40;68.10
33903;DHT22;20194;50.950;5.346;2023-03-14T02:55:52;10.40;68.30
33903;DHT22;20194;50.950;5.346;2023-03-14T02:58:19;10.30;69.50
33903;DHT22;20194;50.950;5.346;2023-03-14T03:00:45;10.30;71.10
33903;DHT22;20194;50.950;5.346;2023-03-14T03:03:11;10.20;71.60
33903;DHT22;20194;50.950;5.346;2023-03-14T03:05:37;10.30;72.10
33903;DHT22;20194;50.950;5.346;2023-03-14T03:08:03;10.20;72.50
33903;DHT22;20194;50.950;5.346;2023-03-14T03:10:30;10.20;73.70
33903;DHT22;20194;50.950;5.346;2023-03-14T03:12:56;10.10;75.00
33903;DHT22;20194;50.950;5.346;2023-03-14T03:15:22;10.10;75.40
33903;DHT22;20194;50.950;5.346;2023-03-14T03:17:48;10.00;74.40
33903;DHT22;20194;50.950;5.346;2023-03-14T03:20:14;10.10;74.70
33903;DHT22;20194;50.950;5.346;2023-03-14T03:22:40;10.10;74.50
33903;DHT22;20194;50.950;5.346;2023-03-14T03:25:07;10.10;73.70
33903;DHT22;20194;50.950;5.346;2023-03-14T03:27:35;10.20;74.90
33903;DHT22;20194;50.950;5.346;2023-03-14T03:30:01;10.20;73.80
33903;DHT22;20194;50.950;5.346;2023-03-14T03:32:27;10.10;74.30
33903;DHT22;20194;50.950;5.346;2023-03-14T03:34:53;10.20;74.80
33903;DHT22;20194;50.950;5.346;2023-03-14T03:37:19;10.20;74.90
33903;DHT22;20194;50.950;5.346;2023-03-14T03:39:44;10.30;75.20
33903;DHT22;20194;50.950;5.346;2023-03-14T03:42:10;10.40;75.10
33903;DHT22;20194;50.950;5.346;2023-03-14T03:44:36;10.50;74.20
33903;DHT22;20194;50.950;5.346;2023-03-14T03:47:03;10.60;73.20
33903;DHT22;20194;50.950;5.346;2023-03-14T03:49:32;10.50;72.50
33903;DHT22;20194;50.950;5.346;2023-03-14T03:51:59;10.30;74.00
33903;DHT22;20194;50.950;5.346;2023-03-14T03:54:25;10.20;75.90
33903;DHT22;20194;50.950;5.346;2023-03-14T03:56:51;10.20;76.80
33903;DHT22;20194;50.950;5.346;2023-03-14T03:59:17;10.20;77.00
33903;DHT22;20194;50.950;5.346;2023-03-14T04:01:43;10.10;77.70
33903;DHT22;20194;50.950;5.346;2023-03-14T04:04:09;10.10;78.00
33903;DHT22;20194;50.950;5.346;2023-03-14T04:06:35;10.20;78.10
33903;DHT22;20194;50.950;5.346;2023-03-14T04:09:02;10.20;77.70
33903;DHT22;20194;50.950;5.346;2023-03-14T04:11:28;10.20;77.20
33903;DHT22;20194;50.950;5.346;2023-03-14T04:13:54;10.20;77.00
33903;DHT22;20194;50.950;5.346;2023-03-14T04:16:22;10.20;77.00
33903;DHT22;20194;50.950;5.346;2023-03-14T04:18:49;10.10;78.00
33903;DHT22;20194;50.950;5.346;2023-03-14T04:21:15;10.10;78.40
33903;DHT22;20194;50.950;5.346;2023-03-14T04:23:40;10.10;78.00
33903;DHT22;20194;50.950;5.346;2023-03-14T04:26:06;10.10;78.40
33903;DHT22;20194;50.950;5.346;2023-03-14T04:28:32;10.10;77.80
33903;DHT22;20194;50.950;5.346;2023-03-14T04:30:58;10.10;78.30
33903;DHT22;20194;50.950;5.346;2023-03-14T04:33:23;10.10;78.70
33903;DHT22;20194;50.950;5.346;2023-03-14T04:35:53;10.10;78.70
33903;DHT22;20194;50.950;5.346;2023-03-14T04:38:19;10.10;78.40
33903;DHT22;20194;50.950;5.346;2023-03-14T04:40:45;10.20;78.90
33903;DHT22;20194;50.950;5.346;2023-03-14T04:43:11;10.20;77.80
33903;DHT22;20194;50.950;5.346;2023-03-14T04:45:40;10.20;76.80
33903;DHT22;20194;50.950;5.346;2023-03-14T04:48:06;10.30;77.30
33903;DHT22;20194;50.950;5.346;2023-03-14T04:50:32;10.20;76.60
33903;DHT22;20194;50.950;5.346;2023-03-14T04:52:57;10.20;77.60
33903;DHT22;20194;50.950;5.346;2023-03-14T04:55:23;10.30;76.80
33903;DHT22;20194;50.950;5.346;2023-03-14T04:57:49;10.20;76.00
33903;DHT22;20194;50.950;5.346;2023-03-14T05:00:15;10.20;76.50
33903;DHT22;20194;50.950;5.346;2023-03-14T05:02:43;10.20;77.10
33903;DHT22;20194;50.950;5.346;2023-03-14T05:05:09;10.20;77.10
33903;DHT22;20194;50.950;5.346;2023-03-14T05:07:35;10.20;77.20
33903;DHT22;20194;50.950;5.346;2023-03-14T05:10:01;10.30;76.80
33903;DHT22;20194;50.950;5.346;2023-03-14T05:12:26;10.20;76.50
33903;DHT22;20194;50.950;5.346;2023-03-14T05:14:52;10.20;76.70
33903;DHT22;20194;50.950;5.346;2023-03-14T05:17:18;10.20;77.10
33903;DHT22;20194;50.950;5.346;2023-03-14T05:19:44;10.20;77.00
33903;DHT22;20194;50.950;5.346;2023-03-14T05:22:10;10.20;76.90
33903;DHT22;20194;50.950;5.346;2023-03-14T05:24:36;10.20;77.30
33903;DHT22;20194;50.950;5.346;2023-03-14T05:27:03;10.20;77.20
33903;DHT22;20194;50.950;5.346;2023-03-14T05:29:28;10.20;77.40
33903;DHT22;20194;50.950;5.346;2023-03-14T05:31:54;10.20;77.30
33903;DHT22;20194;50.950;5.346;2023-03-14T05:34:20;10.20;76.90
33903;DHT22;20194;50.950;5.346;2023-03-14T05:36:46;10.20;77.20
33903;DHT22;20194;50.950;5.346;2023-03-14T05:39:11;10.30;77.10
33903;DHT22;20194;50.950;5.346;2023-03-14T05:41:37;10.30;76.70
33903;DHT22;20194;50.950;5.346;2023-03-14T05:44:03;10.30;77.00
33903;DHT22;20194;50.950;5.346;2023-03-14T05:46:29;10.30;76.50
33903;DHT22;20194;50.950;5.346;2023-03-14T05:48:57;10.30;76.60
33903;DHT22;20194;50.950;5.346;2023-03-14T05:51:23;10.30;77.10
33903;DHT22;20194;50.950;5.346;2023-03-14T05:53:49;10.30;77.00
33903;DHT22;20194;50.950;5.346;2023-03-14T05:56:15;10.20;77.20
33903;DHT22;20194;50.950;5.346;2023-03-14T05:58:40;10.20;77.90
33903;DHT22;20194;50.950;5.346;2023-03-14T06:01:06;10.20;78.30
33903;DHT22;20194;50.950;5.346;2023-03-14T06:03:33;10.30;78.60
33903;DHT22;20194;50.950;5.346;2023-03-14T06:05:58;10.30;77.80
33903;DHT22;20194;50.950;5.346;2023-03-14T06:08:24;10.30;78.60
33903;DHT22;20194;50.950;5.346;2023-03-14T06:10:51;10.30;78.40
33903;DHT22;20194;50.950;5.346;2023-03-14T06:13:16;10.20;78.90
33903;DHT22;20194;50.950;5.346;2023-03-14T06:15:42;10.30;78.40
33903;DHT22;20194;50.950;5.346;2023-03-14T06:18:08;10.30;78.40
33903;DHT22;20194;50.950;5.346;2023-03-14T06:20:36;10.30;78.70
33903;DHT22;20194;50.950;5.346;2023-03-14T06:23:04;10.30;78.60
33903;DHT22;20194;50.950;5.346;2023-03-14T06:25:32;10.30;78.70
33903;DHT22;20194;50.950;5.346;2023-03-14T06:27:58;10.30;78.60
33903;DHT22;20194;50.950;5.346;2023-03-14T06:30:23;10.30;78.30
33903;DHT22;20194;50.950;5.346;2023-03-14T06:32:49;10.30;78.70
33903;DHT22;20194;50.950;5.346;2023-03-14T06:35:15;10.40;78.40
33903;DHT22;20194;50.950;5.346;2023-03-14T06:37:41;10.50;78.20
33903;DHT22;20194;50.950;5.346;2023-03-14T06:40:08;10.40;77.60
33903;DHT22;20194;50.950;5.346;2023-03-14T06:42:34;10.50;78.40
33903;DHT22;20194;50.950;5.346;2023-03-14T06:45:00;10.50;77.50
33903;DHT22;20194;50.950;5.346;2023-03-14T06:47:26;10.50;77.40
33903;DHT22;20194;50.950;5.346;2023-03-14T06:49:51;10.60;76.80
33903;DHT22;20194;50.950;5.346;2023-03-14T06:52:17;10.60;76.40
33903;DHT22;20194;50.950;5.346;2023-03-14T06:54:43;10.70;75.80
33903;DHT22;20194;50.950;5.346;2023-03-14T06:57:09;10.70;75.50
33903;DHT22;20194;50.950;5.346;2023-03-14T06:59:34;10.70;75.60
33903;DHT22;20194;50.950;5.346;2023-03-14T07:02:00;10.70;76.20
33903;DHT22;20194;50.950;5.346;2023-03-14T07:04:25;10.80;76.90
33903;DHT22;20194;50.950;5.346;2023-03-14T07:06:51;10.70;76.60
33903;DHT22;20194;50.950;5.346;2023-03-14T07:09:17;10.70;76.80
33903;DHT22;20194;50.950;5.346;2023-03-14T07:11:43;10.70;76.60
33903;DHT22;20194;50.950;5.346;2023-03-14T07:14:09;10.70;77.00
33903;DHT22;20194;50.950;5.346;2023-03-14T07:16:35;10.70;77.10
33903;DHT22;20194;50.950;5.346;2023-03-14T07:19:01;10.90;76.90
33903;DHT22;20194;50.950;5.346;2023-03-14T07:21:27;10.90;76.90
33903;DHT22;20194;50.950;5.346;2023-03-14T07:23:53;10.90;76.70
33903;DHT22;20194;50.950;5.346;2023-03-14T07:26:19;10.90;77.20
33903;DHT22;20194;50.950;5.346;2023-03-14T07:28:45;10.80;77.90
33903;DHT22;20194;50.950;5.346;2023-03-14T07:31:11;10.80;78.30
33903;DHT22;20194;50.950;5.346;2023-03-14T07:33:37;10.80;78.50
33903;DHT22;20194;50.950;5.346;2023-03-14T07:36:04;10.90;78.10
33903;DHT22;20194;50.950;5.346;2023-03-14T07:38:30;10.80;77.90
33903;DHT22;20194;50.950;5.346;2023-03-14T07:41:00;10.80;77.90
33903;DHT22;20194;50.950;5.346;2023-03-14T07:43:27;10.80;78.20
33903;DHT22;20194;50.950;5.346;2023-03-14T07:45:52;10.80;78.10
33903;DHT22;20194;50.950;5.346;2023-03-14T07:48:18;10.70;78.10
33903;DHT22;20194;50.950;5.346;2023-03-14T07:50:48;10.70;79.10
33903;DHT22;20194;50.950;5.346;2023-03-14T07:53:15;10.70;79.60
33903;DHT22;20194;50.950;5.346;2023-03-14T07:55:41;10.60;80.10
33903;DHT22;20194;50.950;5.346;2023-03-14T07:58:07;10.60;79.70
33903;DHT22;20194;50.950;5.346;2023-03-14T08:00:32;10.10;67.90
33903;DHT22;20194;50.950;5.346;2023-03-14T08:02:58;9.90;66.60
33903;DHT22;20194;50.950;5.346;2023-03-14T08:05:24;9.80;65.50
33903;DHT22;20194;50.950;5.346;2023-03-14T08:07:50;9.50;65.90
33903;DHT22;20194;50.950;5.346;2023-03-14T08:10:16;9.50;69.10
33903;DHT22;20194;50.950;5.346;2023-03-14T08:12:55;9.50;69.30
33903;DHT22;20194;50.950;5.346;2023-03-14T08:15:22;9.50;70.40
33903;DHT22;20194;50.950;5.346;2023-03-14T08:17:48;9.40;69.30
33903;DHT22;20194;50.950;5.346;2023-03-14T08:20:17;9.20;67.70
33903;DHT22;20194;50.950;5.346;2023-03-14T08:22:43;9.30;70.50
33903;DHT22;20194;50.950;5.346;2023-03-14T08:25:09;9.20;68.30
33903;DHT22;20194;50.950;5.346;2023-03-14T08:27:35;9.30;69.00
33903;DHT22;20194;50.950;5.346;2023-03-14T08:30:03;9.30;67.70
33903;DHT22;20194;50.950;5.346;2023-03-14T08:32:29;9.30;66.60
33903;DHT22;20194;50.950;5.346;2023-03-14T08:34:56;9.40;68.10
33903;DHT22;20194;50.950;5.346;2023-03-14T08:37:22;9.40;67.20
33903;DHT22;20194;50.950;5.346;2023-03-14T08:39:47;9.30;66.50
33903;DHT22;20194;50.950;5.346;2023-03-14T08:42:13;9.20;65.80
33903;DHT22;20194;50.950;5.346;2023-03-14T08:44:38;9.00;67.90
33903;DHT22;20194;50.950;5.346;2023-03-14T08:47:04;9.00;69.40
33903;DHT22;20194;50.950;5.346;2023-03-14T08:49:30;8.90;68.60
33903;DHT22;20194;50.950;5.346;2023-03-14T08:51:56;8.90;68.00
33903;DHT22;20194;50.950;5.346;2023-03-14T08:54:21;9.00;69.80
33903;DHT22;20194;50.950;5.346;2023-03-14T08:56:47;9.00;69.20
33903;DHT22;20194;50.950;5.346;2023-03-14T08:59:13;8.90;69.40
33903;DHT22;20194;50.950;5.346;2023-03-14T09:01:38;8.80;68.70
33903;DHT22;20194;50.950;5.346;2023-03-14T09:04:04;8.80;67.50
33903;DHT22;20194;50.950;5.346;2023-03-14T09:06:30;8.90;69.50
33903;DHT22;20194;50.950;5.346;2023-03-14T09:08:56;9.00;68.90
33903;DHT22;20194;50.950;5.346;2023-03-14T09:11:22;9.00;67.90
33903;DHT22;20194;50.950;5.346;2023-03-14T09:13:48;9.00;66.30
33903;DHT22;20194;50.950;5.346;2023-03-14T09:16:14;9.00;67.30
33903;DHT22;20194;50.950;5.346;2023-03-14T09:18:40;8.90;66.50
33903;DHT22;20194;50.950;5.346;2023-03-14T09:21:06;8.90;64.70
33903;DHT22;20194;50.950;5.346;2023-03-14T09:23:31;8.90;66.20
33903;DHT22;20194;50.950;5.346;2023-03-14T09:25:59;9.00;67.40
33903;DHT22;20194;50.950;5.346;2023-03-14T09:28:25;9.20;65.90
33903;DHT22;20194;50.950;5.346;2023-03-14T09:30:51;9.20;65.30
33903;DHT22;20194;50.950;5.346;2023-03-14T09:33:18;9.10;63.30
33903;DHT22;20194;50.950;5.346;2023-03-14T09:35:44;9.10;64.80
33903;DHT22;20194;50.950;5.346;2023-03-14T09:38:09;9.20;65.20
33903;DHT22;20194;50.950;5.346;2023-03-14T09:40:36;9.20;63.30
33903;DHT22;20194;50.950;5.346;2023-03-14T09:43:03;9.30;64.30
33903;DHT22;20194;50.950;5.346;2023-03-14T09:45:33;9.30;60.30
33903;DHT22;20194;50.950;5.346;2023-03-14T09:48:00;9.40;62.80
33903;DHT22;20194;50.950;5.346;2023-03-14T09:50:33;9.40;59.90
33903;DHT22;20194;50.950;5.346;2023-03-14T09:53:02;9.60;59.80
33903;DHT22;20194;50.950;5.346;2023-03-14T09:55:29;9.30;60.20
33903;DHT22;20194;50.950;5.346;2023-03-14T09:57:58;9.20;63.90
33903;DHT22;20194;50.950;5.346;2023-03-14T10:00:27;9.20;64.60
33903;DHT22;20194;50.950;5.346;2023-03-14T10:05:39;8.90;63.00
33903;DHT22;20194;50.950;5.346;2023-03-14T10:08:05;8.80;61.80
33903;DHT22;20194;50.950;5.346;2023-03-14T10:10:32;8.70;66.10
33903;DHT22;20194;50.950;5.346;2023-03-14T10:12:58;8.70;67.20
33903;DHT22;20194;50.950;5.346;2023-03-14T10:15:34;8.80;67.20
33903;DHT22;20194;50.950;5.346;2023-03-14T10:18:01;8.60;63.40
33903;DHT22;20194;50.950;5.346;2023-03-14T10:20:36;8.70;65.30
33903;DHT22;20194;50.950;5.346;2023-03-14T10:25:33;8.90;65.00
33903;DHT22;20194;50.950;5.346;2023-03-14T10:27:59;8.90;64.50
33903;DHT22;20194;50.950;5.346;2023-03-14T10:30:40;8.90;64.40
33903;DHT22;20194;50.950;5.346;2023-03-14T10:33:18;9.10;63.80
33903;DHT22;20194;50.950;5.346;2023-03-14T10:35:51;9.20;62.90
33903;DHT22;20194;50.950;5.346;2023-03-14T10:38:18;9.00;57.50
33903;DHT22;20194;50.950;5.346;2023-03-14T10:40:51;8.80;58.10
33903;DHT22;20194;50.950;5.346;2023-03-14T10:43:32;8.80;60.60
33903;DHT22;20194;50.950;5.346;2023-03-14T10:46:12;8.70;61.90
33903;DHT22;20194;50.950;5.346;2023-03-14T10:48:40;8.70;61.00
33903;DHT22;20194;50.950;5.346;2023-03-14T10:51:29;8.80;61.50
33903;DHT22;20194;50.950;5.346;2023-03-14T10:53:58;8.70;59.90
33903;DHT22;20194;50.950;5.346;2023-03-14T10:56:26;8.80;64.20
33903;DHT22;20194;50.950;5.346;2023-03-14T10:58:57;8.80;64.00
33903;DHT22;20194;50.950;5.346;2023-03-14T11:01:44;8.70;65.20
33903;DHT22;20194;50.950;5.346;2023-03-14T11:07:12;8.30;65.20
33903;DHT22;20194;50.950;5.346;2023-03-14T11:15:05;8.30;65.60
33903;DHT22;20194;50.950;5.346;2023-03-14T11:25:43;8.50;69.30
33903;DHT22;20194;50.950;5.346;2023-03-14T11:28:36;8.70;68.60
33903;DHT22;20194;50.950;5.346;2023-03-14T11:33:39;8.70;62.80
33903;DHT22;20194;50.950;5.346;2023-03-14T11:36:10;8.70;64.90
33903;DHT22;20194;50.950;5.346;2023-03-14T11:38:47;8.70;61.50
33903;DHT22;20194;50.950;5.346;2023-03-14T11:41:24;8.70;64.40
33903;DHT22;20194;50.950;5.346;2023-03-14T11:43:55;8.50;61.40
33903;DHT22;20194;50.950;5.346;2023-03-14T11:46:41;8.60;64.90
33903;DHT22;20194;50.950;5.346;2023-03-14T11:57:31;8.60;63.10
33903;DHT22;20194;50.950;5.346;2023-03-14T12:02:40;8.80;60.10
33903;DHT22;20194;50.950;5.346;2023-03-14T12:10:43;9.20;66.00
33903;DHT22;20194;50.950;5.346;2023-03-14T12:13:12;9.50;67.10
33903;DHT22;20194;50.950;5.346;2023-03-14T12:15:58;9.60;61.50
33903;DHT22;20194;50.950;5.346;2023-03-14T12:18:30;9.60;58.80
33903;DHT22;20194;50.950;5.346;2023-03-14T12:21:00;9.70;56.20
33903;DHT22;20194;50.950;5.346;2023-03-14T12:23:27;9.70;55.00
33903;DHT22;20194;50.950;5.346;2023-03-14T12:29:09;9.40;47.70
33903;DHT22;20194;50.950;5.346;2023-03-14T12:39:39;9.10;55.20
33903;DHT22;20194;50.950;5.346;2023-03-14T12:44:45;9.20;53.10
33903;DHT22;20194;50.950;5.346;2023-03-14T12:49:48;8.70;47.80
33903;DHT22;20194;50.950;5.346;2023-03-14T12:52:19;8.40;49.50
33903;DHT22;20194;50.950;5.346;2023-03-14T12:54:47;8.40;52.60
33903;DHT22;20194;50.950;5.346;2023-03-14T12:59:51;8.60;51.70
33903;DHT22;20194;50.950;5.346;2023-03-14T13:02:24;8.50;50.40
33903;DHT22;20194;50.950;5.346;2023-03-14T13:05:01;8.70;50.90
33903;DHT22;20194;50.950;5.346;2023-03-14T13:15:21;8.80;52.30
33903;DHT22;20194;50.950;5.346;2023-03-14T13:17:49;8.70;51.80
33903;DHT22;20194;50.950;5.346;2023-03-14T13:20:35;8.60;49.50
33903;DHT22;20194;50.950;5.346;2023-03-14T13:23:02;8.40;52.70
33903;DHT22;20194;50.950;5.346;2023-03-14T13:25:35;8.30;55.40
33903;DHT22;20194;50.950;5.346;2023-03-14T13:28:03;8.40;56.30
33903;DHT22;20194;50.950;5.346;2023-03-14T13:30:44;8.40;56.30
33903;DHT22;20194;50.950;5.346;2023-03-14T13:33:21;8.30;55.90
33903;DHT22;20194;50.950;5.346;2023-03-14T13:38:19;8.30;56.40
33903;DHT22;20194;50.950;5.346;2023-03-14T13:40:47;8.20;57.10
33903;DHT22;20194;50.950;5.346;2023-03-14T13:43:32;8.20;56.20
33903;DHT22;20194;50.950;5.346;2023-03-14T13:46:05;8.20;55.60
33903;DHT22;20194;50.950;5.346;2023-03-14T13:48:35;8.30;56.10
33903;DHT22;20194;50.950;5.346;2023-03-14T13:51:03;8.30;54.60
33903;DHT22;20194;50.950;5.346;2023-03-14T13:53:30;8.20;51.00
33903;DHT22;20194;50.950;5.346;2023-03-14T13:55:57;8.20;52.60
33903;DHT22;20194;50.950;5.346;2023-03-14T13:58:28;8.50;52.90
33903;DHT22;20194;50.950;5.346;2023-03-14T14:01:03;8.70;49.40
33903;DHT22;20194;50.950;5.346;2023-03-14T14:03:33;8.60;46.60
33903;DHT22;20194;50.950;5.346;2023-03-14T14:06:00;8.50;46.20
33903;DHT22;20194;50.950;5.346;2023-03-14T14:08:26;8.80;47.20
33903;DHT22;20194;50.950;5.346;2023-03-14T14:10:57;8.80;42.20
33903;DHT22;20194;50.950;5.346;2023-03-14T14:13:24;8.90;38.10
33903;DHT22;20194;50.950;5.346;2023-03-14T14:15:53;8.90;38.70
33903;DHT22;20194;50.950;5.346;2023-03-14T14:18:23;9.00;33.20
33903;DHT22;20194;50.950;5.346;2023-03-14T14:20:49;9.00;33.80
33903;DHT22;20194;50.950;5.346;2023-03-14T14:23:21;8.80;43.10
33903;DHT22;20194;50.950;5.346;2023-03-14T14:25:52;8.60;51.30
33903;DHT22;20194;50.950;5.346;2023-03-14T14:28:25;8.10;54.50
33903;DHT22;20194;50.950;5.346;2023-03-14T14:33:45;8.00;59.00
33903;DHT22;20194;50.950;5.346;2023-03-14T14:36:18;8.00;58.00
33903;DHT22;20194;50.950;5.346;2023-03-14T14:38:50;8.00;59.30
33903;DHT22;20194;50.950;5.346;2023-03-14T14:41:16;7.80;58.70
33903;DHT22;20194;50.950;5.346;2023-03-14T14:43:41;7.80;60.00
33903;DHT22;20194;50.950;5.346;2023-03-14T14:46:08;7.80;60.30
33903;DHT22;20194;50.950;5.346;2023-03-14T14:48:38;7.70;60.30
33903;DHT22;20194;50.950;5.346;2023-03-14T14:51:06;7.60;59.80
33903;DHT22;20194;50.950;5.346;2023-03-14T14:53:41;7.60;59.40
33903;DHT22;20194;50.950;5.346;2023-03-14T14:56:25;7.90;61.20
33903;DHT22;20194;50.950;5.346;2023-03-14T14:58:59;8.10;59.00
33903;DHT22;20194;50.950;5.346;2023-03-14T15:01:38;8.10;55.10
33903;DHT22;20194;50.950;5.346;2023-03-14T15:04:11;8.00;57.80
33903;DHT22;20194;50.950;5.346;2023-03-14T15:06:39;8.10;56.80
33903;DHT22;20194;50.950;5.346;2023-03-14T15:09:10;8.00;57.00
33903;DHT22;20194;50.950;5.346;2023-03-14T15:11:36;8.00;58.30
33903;DHT22;20194;50.950;5.346;2023-03-14T15:14:02;8.10;59.70
33903;DHT22;20194;50.950;5.346;2023-03-14T15:16:30;8.10;57.50
33903;DHT22;20194;50.950;5.346;2023-03-14T15:18:58;8.20;58.20
33903;DHT22;20194;50.950;5.346;2023-03-14T15:21:25;8.20;57.80
33903;DHT22;20194;50.950;5.346;2023-03-14T15:23:52;8.20;55.30
33903;DHT22;20194;50.950;5.346;2023-03-14T15:26:21;8.20;53.50
33903;DHT22;20194;50.950;5.346;2023-03-14T15:28:48;8.10;55.20
33903;DHT22;20194;50.950;5.346;2023-03-14T15:31:15;8.30;55.80
33903;DHT22;20194;50.950;5.346;2023-03-14T15:33:43;8.20;21.00
33903;DHT22;20194;50.950;5.346;2023-03-14T15:36:23;8.10;1.00
33903;DHT22;20194;50.950;5.346;2023-03-14T15:38:51;8.00;1.00
33903;DHT22;20194;50.950;5.346;2023-03-14T15:41:17;8.00;1.00
33903;DHT22;20194;50.950;5.346;2023-03-14T15:43:44;8.00;1.00
33903;DHT22;20194;50.950;5.346;2023-03-14T15:46:10;7.90;1.00
33903;DHT22;20194;50.950;5.346;2023-03-14T15:48:36;7.90;1.00
33903;DHT22;20194;50.950;5.346;2023-03-14T15:51:02;7.90;1.00
33903;DHT22;20194;50.950;5.346;2023-03-14T15:53:28;7.90;1.00
33903;DHT22;20194;50.950;5.346;2023-03-14T15:55:54;8.00;1.00
33903;DHT22;20194;50.950;5.346;2023-03-14T15:58:20;7.90;1.00
33903;DHT22;20194;50.950;5.346;2023-03-14T16:00:46;7.80;1.00
33903;DHT22;20194;50.950;5.346;2023-03-14T16:03:12;7.90;1.00
33903;DHT22;20194;50.950;5.346;2023-03-14T16:05:39;8.00;1.00
33903;DHT22;20194;50.950;5.346;2023-03-14T16:08:05;8.20;1.00
33903;DHT22;20194;50.950;5.346;2023-03-14T16:10:32;8.10;1.00
33903;DHT22;20194;50.950;5.346;2023-03-14T16:12:58;8.30;1.00
33903;DHT22;20194;50.950;5.346;2023-03-14T16:15:24;8.40;1.00
33903;DHT22;20194;50.950;5.346;2023-03-14T16:17:53;8.60;1.00
33903;DHT22;20194;50.950;5.346;2023-03-14T16:20:19;8.50;1.00
33903;DHT22;20194;50.950;5.346;2023-03-14T16:22:45;8.50;1.00
33903;DHT22;20194;50.950;5.346;2023-03-14T16:25:11;8.50;1.00
33903;DHT22;20194;50.950;5.346;2023-03-14T16:27:37;8.40;1.00
33903;DHT22;20194;50.950;5.346;2023-03-14T16:30:03;8.40;1.00
33903;DHT22;20194;50.950;5.346;2023-03-14T16:32:29;8.60;1.00
33903;DHT22;20194;50.950;5.346;2023-03-14T16:34:56;8.60;1.00
33903;DHT22;20194;50.950;5.346;2023-03-14T16:37:25;8.40;1.00
33903;DHT22;20194;50.950;5.346;2023-03-14T16:39:52;8.40;1.00
33903;DHT22;20194;50.950;5.346;2023-03-14T16:42:18;8.30;1.00
33903;DHT22;20194;50.950;5.346;2023-03-14T16:44:44;8.10;1.00
33903;DHT22;20194;50.950;5.346;2023-03-14T16:47:10;8.20;1.00
33903;DHT22;20194;50.950;5.346;2023-03-14T16:49:36;8.30;1.00
33903;DHT22;20194;50.950;5.346;2023-03-14T16:52:01;8.30;1.00
33903;DHT22;20194;50.950;5.346;2023-03-14T16:54:27;8.30;1.00
33903;DHT22;20194;50.950;5.346;2023-03-14T16:56:53;8.10;1.00
33903;DHT22;20194;50.950;5.346;2023-03-14T16:59:19;8.10;1.00
33903;DHT22;20194;50.950;5.346;2023-03-14T17:01:45;8.10;1.00
33903;DHT22;20194;50.950;5.346;2023-03-14T17:04:11;8.00;1.00
33903;DHT22;20194;50.950;5.346;2023-03-14T17:06:37;8.00;1.00